Time;durP1;ratioP1;P1;durP2;ratioP2;P2;SDS_P1;SDS_P2;PMS_P1;PMS_P2;Temp;Humidity;BMP_temperature;BMP_pressure;BME280_temperature;BME280_humidity;BME280_pressure;Samples;Min_cycle;Max_cycle;Signal;HPM_P1;HPM_P2
2020/12/01 00:00:14;;;;;;;21.50;13.80;;;;;;;3.22;96.24;100081.31;5016543;28;20410;-76
2020/12/01 00:02:40;;;;;;;18.80;12.15;;;;;;;3.24;96.71;100084.75;5014980;28;20138;-76
2020/12/01 00:05:07;;;;;;;20.80;12.73;;;;;;;3.23;96.83;100077.75;5016059;28;20128;-76
2020/12/01 00:07:34;;;;;;;18.75;13.07;;;;;;;3.23;96.62;100072.47;5015531;28;20080;-77
2020/12/01 00:10:00;;;;;;;18.40;12.40;;;;;;;3.22;96.44;100061.06;5014715;28;20046;-76
2020/12/01 00:12:26;;;;;;;21.90;14.38;;;;;;;3.28;96.58;100067.91;5015460;28;20054;-75
2020/12/01 00:14:52;;;;;;;19.48;13.02;;;;;;;3.30;96.65;100063.44;5014423;28;20435;-76
2020/12/01 00:17:19;;;;;;;20.80;14.38;;;;;;;3.27;96.72;100058.25;5015807;28;20391;-76
2020/12/01 00:19:45;;;;;;;18.60;13.05;;;;;;;3.36;96.79;100052.69;5015464;28;20049;-76
2020/12/01 00:22:12;;;;;;;19.52;13.40;;;;;;;3.37;96.45;100064.97;5015556;28;20064;-77
2020/12/01 00:24:39;;;;;;;18.30;12.98;;;;;;;3.35;96.15;100058.91;4998387;28;20116;-76
2020/12/01 00:27:05;;;;;;;18.35;12.82;;;;;;;3.37;96.29;100054.41;5015305;28;20498;-77
2020/12/01 00:29:31;;;;;;;19.50;12.80;;;;;;;3.41;96.42;100055.19;5014460;28;20367;-77
2020/12/01 00:31:57;;;;;;;19.58;13.25;;;;;;;3.42;96.45;100056.06;5015184;28;20108;-77
2020/12/01 00:34:24;;;;;;;19.80;13.75;;;;;;;3.44;96.51;100054.22;5015413;28;20061;-77
2020/12/01 00:36:50;;;;;;;21.75;13.90;;;;;;;3.39;96.23;100047.31;5014926;28;20054;-77
2020/12/01 00:39:16;;;;;;;20.25;14.32;;;;;;;3.49;96.27;100062.84;5014997;28;20045;-77
2020/12/01 00:41:42;;;;;;;22.50;14.50;;;;;;;3.50;96.36;100060.13;5015022;28;20058;-77
2020/12/01 00:44:08;;;;;;;23.45;15.27;;;;;;;3.47;96.90;100044.44;5014019;28;20085;-76
2020/12/01 00:46:34;;;;;;;23.20;15.00;;;;;;;3.44;96.93;100044.53;5014063;28;20111;-77
2020/12/01 00:49:01;;;;;;;22.05;14.90;;;;;;;3.42;96.74;100037.59;5015207;28;20050;-76
2020/12/01 00:51:27;;;;;;;24.92;15.27;;;;;;;3.47;97.01;100043.53;5013910;28;20046;-77
2020/12/01 00:53:54;;;;;;;28.08;17.08;;;;;;;3.51;97.03;100034.63;5013897;28;20053;-76
2020/12/01 00:56:23;;;;;;;22.65;14.75;;;;;;;3.57;96.46;100037.06;5015152;28;20375;-78
2020/12/01 00:58:50;;;;;;;25.95;15.98;;;;;;;3.56;96.81;100019.50;5014926;28;20073;-77
2020/12/01 01:01:18;;;;;;;26.40;17.00;;;;;;;3.64;97.23;100035.06;5015285;28;20050;-76
2020/12/01 01:03:44;;;;;;;25.80;16.92;;;;;;;3.64;96.75;100027.16;5015127;28;20066;-76
2020/12/01 01:06:12;;;;;;;24.70;16.70;;;;;;;3.69;96.90;100016.44;5014979;28;20060;-76
2020/12/01 01:08:39;;;;;;;24.45;15.50;;;;;;;3.65;96.75;100018.34;5013642;28;20057;-75
2020/12/01 01:11:07;;;;;;;23.73;15.63;;;;;;;3.64;96.93;100003.38;5014941;28;20134;-76
2020/12/01 01:13:34;;;;;;;26.80;16.70;;;;;;;3.71;97.16;100009.34;5014736;28;20061;-76
2020/12/01 01:16:00;;;;;;;25.10;16.60;;;;;;;3.71;96.82;100014.59;5015070;28;20053;-77
2020/12/01 01:18:27;;;;;;;27.08;17.17;;;;;;;3.73;96.88;100024.19;5014754;28;20052;-76
2020/12/01 01:20:54;;;;;;;27.02;17.75;;;;;;;3.76;96.75;100023.25;4997657;28;20181;-76
2020/12/01 01:23:20;;;;;;;30.75;18.90;;;;;;;3.74;97.36;100025.03;5014862;28;20136;-77
2020/12/01 01:25:46;;;;;;;27.52;18.23;;;;;;;3.66;97.15;100010.34;5014708;28;20444;-76
2020/12/01 01:28:12;;;;;;;34.30;19.67;;;;;;;3.79;97.32;100024.00;5013811;28;20057;-75
2020/12/01 01:30:40;;;;;;;28.75;18.30;;;;;;;3.73;97.03;100015.41;5014800;28;20077;-76
2020/12/01 01:33:09;;;;;;;28.85;17.75;;;;;;;3.84;97.38;100015.03;5014827;28;20049;-75
2020/12/01 01:35:35;;;;;;;26.27;17.77;;;;;;;3.87;96.98;100005.22;5014674;28;20054;-75
2020/12/01 01:38:02;;;;;;;27.38;17.08;;;;;;;3.90;97.25;100015.69;5014571;28;20444;-75
2020/12/01 01:40:30;;;;;;;24.52;16.92;;;;;;;3.96;97.25;100008.47;5014744;28;20104;-74
2020/12/01 01:42:57;;;;;;;25.88;17.42;;;;;;;3.86;96.73;100002.66;5014679;28;20081;-75
2020/12/01 01:45:35;;;;;;;26.80;16.20;;;;;;;3.99;96.89;100013.63;5014737;28;20054;-75
2020/12/01 01:48:20;;;;;;;26.92;17.40;;;;;;;4.02;97.33;100018.78;5014185;28;20380;-77
2020/12/01 01:50:59;;;;;;;27.23;17.42;;;;;;;3.96;96.95;100003.19;5017385;28;20099;-76
2020/12/01 01:53:25;;;;;;;24.05;17.33;;;;;;;4.02;96.89;100009.09;5018366;28;20053;-75
2020/12/01 01:55:57;;;;;;;28.08;18.20;;;;;;;4.07;97.00;100008.91;5018349;28;20050;-76
2020/12/01 01:58:28;;;;;;;27.38;17.02;;;;;;;4.12;96.97;100006.97;5017883;28;20057;-77
2020/12/01 02:01:04;;;;;;;30.73;18.05;;;;;;;4.12;97.07;100009.63;5018040;28;20050;-77
2020/12/01 02:03:30;;;;;;;28.98;17.13;;;;;;;4.20;96.78;100012.84;5017862;28;20092;-76
2020/12/01 02:05:57;;;;;;;26.13;17.58;;;;;;;4.18;96.72;100003.25;5018391;28;20053;-77
2020/12/01 02:08:24;;;;;;;27.38;17.55;;;;;;;4.23;97.22;100006.59;5017981;28;20057;-76
2020/12/01 02:10:52;;;;;;;30.20;18.33;;;;;;;4.25;97.55;100010.03;5018074;28;20057;-76
2020/12/01 02:13:33;;;;;;;28.25;17.30;;;;;;;4.33;97.24;100007.09;5017842;28;20054;-77
2020/12/01 02:16:00;;;;;;;;;;;;;;;4.31;96.83;100003.66;5018403;28;20107;-77
2020/12/01 02:18:28;;;;;;;26.45;16.58;;;;;;;4.27;97.11;100002.03;5049565;28;19995;-76
2020/12/01 02:20:55;;;;;;;22.17;13.95;;;;;;;4.43;97.33;100004.97;5017766;28;20046;-76
2020/12/01 02:23:21;;;;;;;26.15;15.82;;;;;;;4.41;97.10;99996.25;5016430;28;20427;-77
2020/12/01 02:25:47;;;;;;;25.05;17.42;;;;;;;4.39;96.99;99990.13;5017496;28;20056;-76
2020/12/01 02:28:13;;;;;;;22.23;15.68;;;;;;;4.39;97.35;99995.44;5017713;28;20102;-76
2020/12/01 02:30:39;;;;;;;24.45;15.38;;;;;;;4.44;97.48;99994.34;5017478;28;20061;-77
2020/12/01 02:33:05;;;;;;;27.10;16.02;;;;;;;4.41;97.47;99991.81;5017575;28;20076;-75
2020/12/01 02:35:31;;;;;;;21.60;14.73;;;;;;;4.41;97.32;99977.75;5016403;28;20060;-77
2020/12/01 02:37:58;;;;;;;24.15;15.82;;;;;;;4.47;97.51;99994.22;5017447;28;20111;-76
2020/12/01 02:40:24;;;;;;;23.25;14.45;;;;;;;4.52;97.74;100001.13;5016306;28;20049;-76
2020/12/01 02:42:51;;;;;;;22.38;14.38;;;;;;;4.43;97.74;99997.91;5016446;28;20139;-77
2020/12/01 02:45:18;;;;;;;26.77;14.80;;;;;;;4.56;98.06;100003.59;5017576;28;20124;-78
2020/12/01 02:47:44;;;;;;;20.50;13.60;;;;;;;4.59;97.85;100010.53;5017134;28;20148;-76
2020/12/01 02:50:14;;;;;;;23.80;13.07;;;;;;;4.65;97.76;100004.16;5017095;28;20050;-75
2020/12/01 02:52:41;;;;;;;19.85;12.82;;;;;;;4.65;98.11;100007.66;5017029;28;20072;-76
2020/12/01 02:55:07;;;;;;;24.67;13.27;;;;;;;4.64;98.14;99999.78;5017373;28;20058;-75
2020/12/01 02:57:34;;;;;;;20.45;12.73;;;;;;;4.72;97.74;100001.22;5017236;28;20068;-75
2020/12/01 03:00:00;;;;;;;22.55;13.30;;;;;;;4.80;97.53;100000.03;5015343;28;20053;-75
2020/12/01 03:02:26;;;;;;;23.15;13.75;;;;;;;4.76;97.71;99992.22;5016910;28;20428;-75
2020/12/01 03:04:53;;;;;;;20.50;12.73;;;;;;;4.83;97.81;100002.56;5016723;28;20386;-76
2020/12/01 03:07:19;;;;;;;24.73;14.57;;;;;;;4.76;98.03;99999.31;5016818;28;20333;-75
2020/12/01 03:09:46;;;;;;;22.35;13.60;;;;;;;4.81;98.07;100004.41;5015493;28;20101;-75
2020/12/01 03:12:13;;;;;;;24.88;14.05;;;;;;;4.77;98.24;100001.03;5016750;28;20061;-77
2020/12/01 03:14:39;;;;;;;26.65;13.75;;;;;;;4.88;98.05;100005.88;5016784;28;20050;-75
2020/12/01 03:17:06;;;;;;;24.05;14.10;;;;;;;4.87;98.22;100007.69;5015879;28;20137;-75
2020/12/01 03:19:32;;;;;;;26.05;12.82;;;;;;;4.82;98.58;100006.13;5016875;28;20057;-75
2020/12/01 03:21:58;;;;;;;20.10;12.80;;;;;;;4.89;98.05;100010.25;5016539;28;20084;-75
2020/12/01 03:24:24;;;;;;;27.05;12.02;;;;;;;4.89;98.43;100002.31;5016224;28;20054;-76
2020/12/01 03:26:50;;;;;;;23.27;12.80;;;;;;;4.91;98.48;100000.50;5016493;28;20050;-76
2020/12/01 03:29:16;;;;;;;25.05;13.05;;;;;;;4.89;98.76;100005.81;5016498;28;20062;-76
2020/12/01 03:31:43;;;;;;;24.20;11.68;;;;;;;4.92;98.50;100004.84;5016382;28;20099;-76
2020/12/01 03:34:10;;;;;;;22.10;10.85;;;;;;;4.94;98.29;99992.41;5016345;28;20424;-76
2020/12/01 03:36:36;;;;;;;19.33;10.35;;;;;;;4.90;98.44;99998.75;5015722;28;20107;-77
2020/12/01 03:39:03;;;;;;;19.58;9.93;;;;;;;5.03;98.41;100001.78;5015812;28;20049;-75
2020/12/01 03:41:29;;;;;;;23.25;10.50;;;;;;;4.99;98.62;99998.38;5015286;28;20057;-76
2020/12/01 03:43:56;;;;;;;23.17;11.40;;;;;;;5.01;98.78;100000.97;5016574;28;20050;-76
2020/12/01 03:46:22;;;;;;;27.30;9.85;;;;;;;5.05;98.80;99999.91;5016174;28;20056;-76
2020/12/01 03:48:48;;;;;;;24.15;9.50;;;;;;;5.02;98.80;99994.75;5015645;28;20054;-75
2020/12/01 03:51:14;;;;;;;16.50;7.90;;;;;;;4.96;98.89;99993.19;5014886;28;20432;-76
2020/12/01 03:53:40;;;;;;;14.18;6.93;;;;;;;4.98;98.36;99985.22;4998902;28;20057;-77
2020/12/01 03:56:07;;;;;;;11.32;5.95;;;;;;;5.03;98.31;99991.19;5020629;28;20053;-75
2020/12/01 03:58:33;;;;;;;10.77;5.40;;;;;;;5.14;98.19;99998.69;5026935;28;20050;-75
2020/12/01 04:00:59;;;;;;;9.75;5.05;;;;;;;5.06;98.15;99984.91;5021185;28;20061;-75
2020/12/01 04:03:25;;;;;;;7.63;5.25;;;;;;;5.11;98.57;99998.78;5016453;28;20083;-76
2020/12/01 04:05:51;;;;;;;12.38;6.03;;;;;;;5.13;98.51;99991.69;5016049;28;20341;-75
2020/12/01 04:08:17;;;;;;;18.38;6.72;;;;;;;5.16;98.55;99994.19;5016027;28;20395;-75
2020/12/01 04:10:44;;;;;;;18.63;7.38;;;;;;;5.15;97.86;99990.69;5016208;28;20084;-75
2020/12/01 04:13:10;;;;;;;16.45;7.05;;;;;;;5.19;97.71;99995.84;5015138;28;20317;-75
2020/12/01 04:15:36;;;;;;;19.35;8.02;;;;;;;5.15;97.75;99995.09;5014801;28;20112;-76
2020/12/01 04:18:03;;;;;;;20.17;8.82;;;;;;;5.13;97.90;99992.50;5015866;28;20054;-76
2020/12/01 04:20:29;;;;;;;21.25;6.60;;;;;;;5.20;97.71;99987.84;5015989;28;20081;-75
2020/12/01 04:22:55;;;;;;;20.42;6.25;;;;;;;5.15;97.61;99990.69;5014576;28;20050;-75
2020/12/01 04:25:24;;;;;;;28.52;7.50;;;;;;;4.98;97.73;99970.22;5015509;28;20057;-75
2020/12/01 04:27:52;;;;;;;21.48;6.28;;;;;;;5.06;97.90;99979.63;5014656;28;20351;-76
2020/12/01 04:30:19;;;;;;;25.13;6.15;;;;;;;5.09;98.00;99990.06;5015553;28;20416;-76
2020/12/01 04:32:45;;;;;;;22.40;5.80;;;;;;;5.02;98.02;99985.03;5015474;28;20439;-75
2020/12/01 04:35:13;;;;;;;21.05;6.10;;;;;;;5.13;97.89;99984.56;5015794;28;20049;-76
2020/12/01 04:37:39;;;;;;;35.53;7.53;;;;;;;5.05;97.71;99984.03;5015569;28;20060;-76
2020/12/01 04:40:08;;;;;;;20.73;5.50;;;;;;;5.05;98.23;99993.78;5015509;28;20124;-76
2020/12/01 04:42:44;;;;;;;20.92;5.38;;;;;;;5.06;98.14;99991.06;5015212;28;20053;-75
2020/12/01 04:45:12;;;;;;;21.85;5.40;;;;;;;5.10;97.89;99995.31;5015261;28;20050;-75
2020/12/01 04:48:14;;;;;;;22.08;5.22;;;;;;;5.12;98.09;99995.25;5015041;28;20356;-75
2020/12/01 04:50:47;;;;;;;28.88;5.68;;;;;;;5.00;97.87;99981.59;4993903;28;20102;-75
2020/12/01 04:53:41;;;;;;;18.90;4.50;;;;;;;5.21;97.59;99986.91;5015198;28;20054;-75
2020/12/01 04:56:31;;;;;;;20.88;5.03;;;;;;;5.17;97.32;99987.97;5015344;28;20081;-76
2020/12/01 04:58:57;;;;;;;23.13;4.93;;;;;;;5.16;97.26;99987.13;5015290;28;20057;-75
2020/12/01 05:01:23;;;;;;;29.25;5.80;;;;;;;5.16;97.97;99986.25;5026738;28;20057;-75
2020/12/01 05:04:08;;;;;;;28.85;5.45;;;;;;;5.15;97.82;99990.69;5034860;28;20116;-76
2020/12/01 05:09:56;;;;;;;31.45;5.68;;;;;;;5.13;97.49;99991.69;5035202;28;20049;-75
2020/12/01 05:12:36;;;;;;;22.80;4.53;;;;;;;5.20;97.42;99998.44;5034780;28;20049;-76
2020/12/01 05:15:27;;;;;;;26.63;5.10;;;;;;;5.12;97.88;99987.31;5034631;28;20104;-75
2020/12/01 05:18:18;;;;;;;26.17;4.88;;;;;;;5.11;98.24;99982.91;4995363;28;20275;-76
2020/12/01 05:20:51;;;;;;;23.70;4.75;;;;;;;5.10;97.71;99979.44;4995579;28;20103;-76
2020/12/01 05:23:31;;;;;;;20.85;4.05;;;;;;;5.10;97.72;99986.50;5001507;28;20108;-75
2020/12/01 05:26:05;;;;;;;17.38;5.35;;;;;;;5.12;97.62;99977.56;5019024;28;20057;-76
2020/12/01 05:28:49;;;;;;;27.65;6.18;;;;;;;5.08;97.92;99991.00;5017612;28;20046;-76
2020/12/01 05:31:18;;;;;;;25.77;5.15;;;;;;;5.08;97.25;99983.94;5026346;28;20427;-76
2020/12/01 05:33:45;;;;;;;25.52;5.30;;;;;;;5.12;97.67;99996.09;5038760;28;20351;-75
2020/12/01 05:36:24;;;;;;;19.65;5.32;;;;;;;5.14;97.06;99993.38;5038497;28;20107;-75
2020/12/01 05:39:03;;;;;;;20.75;5.30;;;;;;;5.05;97.66;99993.78;5037327;28;20052;-75
2020/12/01 05:41:37;;;;;;;26.35;5.35;;;;;;;5.02;97.92;99986.81;5037430;28;20107;-76
2020/12/01 05:44:19;;;;;;;25.08;6.88;;;;;;;4.98;97.55;99988.72;5038451;28;20355;-75
2020/12/01 05:46:58;;;;;;;28.42;7.45;;;;;;;4.92;97.96;99986.34;5037934;28;20049;-76
2020/12/01 05:49:45;;;;;;;25.33;7.43;;;;;;;5.09;97.89;99990.06;5038162;28;20107;-75
2020/12/01 05:52:17;;;;;;;26.52;7.30;;;;;;;5.03;97.89;99984.09;5038163;28;20056;-76
2020/12/01 05:55:01;;;;;;;26.75;7.90;;;;;;;5.06;97.47;99988.41;5038254;28;20103;-75
2020/12/01 05:57:28;;;;;;;28.23;7.28;;;;;;;5.05;97.43;99994.63;5037421;28;20049;-74
2020/12/01 06:00:05;;;;;;;21.55;6.50;;;;;;;5.05;97.91;99999.06;5022279;28;20096;-75
2020/12/01 06:02:44;;;;;;;23.08;8.65;;;;;;;5.03;97.20;99980.59;5016898;28;20050;-77
2020/12/01 06:05:16;;;;;;;25.38;6.85;;;;;;;5.13;97.05;99991.69;5018131;28;20058;-75
2020/12/01 06:07:47;;;;;;;23.05;6.90;;;;;;;5.05;97.12;99988.50;5017511;28;20061;-76
2020/12/01 06:10:32;;;;;;;25.08;7.20;;;;;;;5.08;97.65;100007.75;5030013;28;20051;-78
2020/12/01 06:13:43;;;;;;;25.83;5.78;;;;;;;5.07;97.38;100002.50;5037754;28;20427;-76
2020/12/01 06:16:18;;;;;;;17.85;5.65;;;;;;;5.10;97.11;99997.06;5035624;28;20045;-78
2020/12/01 06:18:50;;;;;;;22.00;6.40;;;;;;;5.12;97.16;100003.19;5037545;28;20053;-80
2020/12/01 06:21:43;;;;;;;23.00;6.72;;;;;;;5.02;97.31;100006.19;5008225;28;20053;-78
2020/12/01 06:24:34;;;;;;;25.80;7.15;;;;;;;4.85;97.38;99976.94;5013171;28;20450;-80
2020/12/01 06:27:51;;;;;;;17.23;4.82;;;;;;;5.04;97.30;100000.84;5037004;28;20086;-78
2020/12/01 06:30:32;;;;;;;25.25;7.35;;;;;;;5.02;97.96;100000.91;5036558;28;20053;-80
2020/12/01 06:33:28;;;;;;;29.00;7.07;;;;;;;5.06;97.68;100006.91;5037776;28;20449;-77
2020/12/01 06:36:32;;;;;;;21.48;7.68;;;;;;;5.10;97.22;100016.47;5035877;28;20057;-77
2020/12/01 06:39:20;;;;;;;27.40;7.88;;;;;;;5.12;97.62;100019.06;5037245;28;20057;-77
2020/12/01 06:41:53;;;;;;;19.92;7.68;;;;;;;5.10;97.38;100019.13;5037440;28;20050;-77
2020/12/01 06:44:24;;;;;;;26.45;9.70;;;;;;;5.11;97.35;100017.31;5028055;28;20045;-78
2020/12/01 06:46:53;;;;;;;24.87;8.03;;;;;;;5.07;97.80;100010.44;5017115;28;20061;-79
2020/12/01 06:49:29;;;;;;;30.58;9.32;;;;;;;5.15;97.87;100026.84;5016126;28;20295;-78
2020/12/01 06:51:58;;;;;;;22.88;8.20;;;;;;;5.11;97.30;100001.44;5017872;28;20058;-78
2020/12/01 06:54:25;;;;;;;28.40;8.98;;;;;;;5.21;97.54;100023.97;5017462;28;20053;-76
2020/12/01 06:57:01;;;;;;;25.88;9.30;;;;;;;5.17;97.52;100019.72;5016435;28;20061;-77
2020/12/01 06:59:27;;;;;;;27.35;9.43;;;;;;;5.12;98.18;100019.06;5017170;28;20050;-77
2020/12/01 07:02:05;;;;;;;30.38;9.75;;;;;;;5.15;97.91;100018.91;5017659;28;20050;-78
2020/12/01 07:04:32;;;;;;;26.00;9.40;;;;;;;5.23;97.78;100027.41;5016967;28;20064;-78
2020/12/01 07:07:18;;;;;;;30.33;10.10;;;;;;;5.26;97.77;100022.00;5017087;28;20415;-78
2020/12/01 07:09:47;;;;;;;29.35;10.05;;;;;;;5.25;97.67;100022.94;5033118;28;20049;-78
2020/12/01 07:12:13;;;;;;;23.42;8.93;;;;;;;5.28;97.64;100027.19;5036071;28;20049;-79
2020/12/01 07:14:59;;;;;;;27.88;9.48;;;;;;;5.32;97.20;100015.56;5028653;28;20104;-78
2020/12/01 07:17:31;;;;;;;26.15;10.30;;;;;;;5.24;97.50;100029.13;5016844;28;20423;-79
2020/12/01 07:20:19;;;;;;;24.27;9.52;;;;;;;5.21;97.91;100025.72;5016074;28;20072;-76
2020/12/01 07:23:27;;;;;;;31.27;10.52;;;;;;;5.26;97.60;100039.66;5015916;28;20049;-77
2020/12/01 07:26:02;;;;;;;30.48;9.70;;;;;;;5.28;97.40;100038.66;5005071;28;20108;-77
2020/12/01 07:28:35;;;;;;;25.27;10.68;;;;;;;5.29;97.65;100047.47;5016455;28;20329;-76
2020/12/01 07:31:25;;;;;;;23.83;9.77;;;;;;;5.33;97.59;100053.50;5015891;28;20137;-77
2020/12/01 07:34:06;;;;;;;22.98;9.55;;;;;;;5.35;97.89;100055.16;4996191;28;20420;-77
2020/12/01 07:36:42;;;;;;;23.60;10.88;;;;;;;5.34;97.80;100050.78;4996858;28;20428;-76
2020/12/01 07:39:25;;;;;;;24.52;11.88;;;;;;;5.40;97.47;100047.88;4996974;28;20089;-77
2020/12/01 07:41:56;;;;;;;32.45;12.32;;;;;;;5.41;97.16;100052.25;4996830;28;20057;-76
2020/12/01 07:44:32;;;;;;;29.70;13.25;;;;;;;5.31;97.56;100050.91;4995983;28;20050;-76
2020/12/01 07:47:06;;;;;;;30.98;12.50;;;;;;;5.39;97.54;100050.59;4993019;28;20352;-77
2020/12/01 07:49:34;;;;;;;35.13;13.13;;;;;;;5.35;97.72;100054.28;4993299;28;20463;-76
2020/12/01 07:52:14;;;;;;;32.85;13.65;;;;;;;5.41;97.35;100060.19;4994898;28;20082;-76
2020/12/01 07:54:43;;;;;;;31.48;13.35;;;;;;;5.46;97.47;100062.66;4994565;28;20408;-76
2020/12/01 07:57:11;;;;;;;24.48;13.65;;;;;;;5.42;97.85;100061.06;4994827;28;20054;-76
2020/12/01 07:59:45;;;;;;;32.83;15.07;;;;;;;5.36;97.53;100050.72;4995006;28;20042;-76
2020/12/01 08:02:13;;;;;;;26.15;14.43;;;;;;;5.40;97.81;100063.75;4996454;28;20108;-76
2020/12/01 08:04:39;;;;;;;29.25;14.80;;;;;;;5.42;97.71;100069.00;4996329;28;20062;-76
2020/12/01 08:07:14;;;;;;;32.53;14.52;;;;;;;5.48;97.95;100071.38;4996094;28;20503;-76
2020/12/01 08:09:45;;;;;;;26.30;13.40;;;;;;;5.45;97.65;100068.84;4996442;28;20074;-76
2020/12/01 08:12:15;;;;;;;23.20;10.48;;;;;;;5.51;97.68;100075.69;4995224;28;20046;-75
2020/12/01 08:14:51;;;;;;;18.40;10.43;;;;;;;5.47;97.65;100066.16;4996309;28;20062;-75
2020/12/01 08:17:26;;;;;;;24.20;10.57;;;;;;;5.51;97.86;100071.25;4996068;28;20065;-76
2020/12/01 08:19:56;;;;;;;16.17;9.70;;;;;;;5.58;97.52;100072.72;4996066;28;20429;-75
2020/12/01 08:22:38;;;;;;;13.80;9.20;;;;;;;5.53;97.35;100068.53;4995096;28;20054;-76
2020/12/01 08:25:12;;;;;;;15.20;9.55;;;;;;;5.58;97.57;100074.53;4994899;28;20062;-77
2020/12/01 08:28:17;;;;;;;13.23;8.07;;;;;;;5.62;97.17;100077.91;4994817;28;20441;-75
2020/12/01 08:31:05;;;;;;;11.85;8.13;;;;;;;5.64;97.78;100082.22;5000654;28;20058;-75
2020/12/01 08:33:34;;;;;;;12.25;8.20;;;;;;;5.68;97.53;100081.13;4996057;28;20046;-79
2020/12/01 08:36:12;;;;;;;13.23;7.63;;;;;;;5.58;97.54;100061.28;4996234;28;20058;-77
2020/12/01 08:38:41;;;;;;;14.07;7.95;;;;;;;5.70;97.35;100079.31;4995780;28;20058;-77
2020/12/01 08:41:31;;;;;;;10.35;7.35;;;;;;;5.77;97.47;100071.94;4995911;28;20046;-77
2020/12/01 08:44:06;;;;;;;15.63;7.70;;;;;;;5.72;97.08;100081.88;4994736;28;20058;-77
2020/12/01 08:46:41;;;;;;;12.18;8.20;;;;;;;5.67;97.30;100078.56;4994870;28;20105;-77
2020/12/01 08:49:24;;;;;;;13.23;8.63;;;;;;;5.72;97.78;100089.81;4994647;28;20047;-77
2020/12/01 08:52:00;;;;;;;16.42;8.48;;;;;;;5.76;97.72;100088.78;4995871;28;20058;-76
2020/12/01 08:54:30;;;;;;;16.48;9.15;;;;;;;5.71;97.44;100086.31;4995836;28;20054;-76
2020/12/01 08:57:08;;;;;;;15.87;9.00;;;;;;;5.82;97.30;100095.59;5001728;28;20120;-76
2020/12/01 08:59:46;;;;;;;17.60;9.52;;;;;;;5.82;97.47;100103.53;5001458;28;20070;-76
2020/12/01 09:02:15;;;;;;;13.82;9.18;;;;;;;5.67;97.82;100082.06;4995798;28;20101;-76
2020/12/01 09:04:41;;;;;;;16.50;9.90;;;;;;;5.82;97.43;100104.41;4995509;28;20455;-77
2020/12/01 09:07:22;;;;;;;16.00;9.80;;;;;;;5.95;96.94;100104.72;4995629;28;20054;-76
2020/12/01 09:09:51;;;;;;;16.60;10.50;;;;;;;5.80;97.18;100094.78;4995360;28;20054;-76
2020/12/01 09:14:58;;;;;;;17.75;10.23;;;;;;;5.98;97.18;100107.25;4995847;28;20062;-77
2020/12/01 09:23:12;;;;;;;17.70;9.55;;;;;;;6.26;96.57;100126.44;4995354;28;20046;-77
2020/12/01 09:25:42;;;;;;;14.30;9.20;;;;;;;6.28;96.55;100116.66;4994429;28;20054;-79
2020/12/01 09:28:12;;;;;;;18.20;9.93;;;;;;;6.24;96.57;100118.56;4995481;28;20101;-78
2020/12/01 09:30:40;;;;;;;18.58;10.10;;;;;;;6.21;96.50;100121.34;4993848;28;20050;-77
2020/12/01 09:33:10;;;;;;;16.27;11.50;;;;;;;6.28;96.66;100131.66;4995451;28;20054;-78
2020/12/01 09:35:37;;;;;;;19.35;11.27;;;;;;;6.22;96.66;100128.34;4995410;28;20051;-77
2020/12/01 09:38:03;;;;;;;28.13;12.10;;;;;;;6.26;96.82;100129.06;4995266;28;20062;-77
2020/12/01 09:40:31;;;;;;;17.05;11.82;;;;;;;6.36;96.79;100130.41;4995111;28;20051;-77
2020/12/01 09:43:05;;;;;;;22.75;12.77;;;;;;;6.39;96.28;100132.91;4994989;28;20050;-77
2020/12/01 09:45:33;;;;;;;20.40;11.82;;;;;;;6.43;96.78;100132.78;4998851;28;20050;-77
2020/12/01 09:50:32;;;;;;;21.80;11.52;;;;;;;6.45;97.08;100136.22;5014979;28;20096;-78
2020/12/01 09:55:48;;;;;;;19.15;11.82;;;;;;;6.40;97.14;100133.78;5014881;28;20053;-80
2020/12/01 10:08:44;;;;;;;18.17;12.82;;;;;;;6.68;97.48;100139.63;5014803;28;20116;-78
2020/12/01 10:35:25;;;;;;;19.58;9.60;;;;;;;6.73;98.19;100135.00;5016707;28;20058;-78
2020/12/01 10:38:00;;;;;;;17.63;9.07;;;;;;;6.73;98.10;100146.47;5018155;28;20046;-77
2020/12/01 10:40:27;;;;;;;12.82;8.13;;;;;;;6.74;97.84;100139.34;5018020;28;20099;-77
2020/12/01 10:42:55;;;;;;;17.27;10.13;;;;;;;6.69;98.28;100142.22;5016660;28;20050;-77
2020/12/01 10:45:23;;;;;;;14.20;9.65;;;;;;;6.66;98.54;100143.22;5015697;28;20056;-76
2020/12/01 10:47:49;;;;;;;16.08;9.32;;;;;;;6.71;98.79;100147.47;5016811;28;20502;-77
2020/12/01 10:50:20;;;;;;;14.15;9.55;;;;;;;6.75;98.75;100149.91;5017530;28;20054;-76
2020/12/01 10:52:46;;;;;;;13.18;8.70;;;;;;;6.78;98.90;100149.78;5017848;28;20057;-76
2020/12/01 10:55:16;;;;;;;11.05;7.05;;;;;;;6.82;98.38;100142.56;5018423;28;20427;-77
2020/12/01 10:57:42;;;;;;;11.65;7.05;;;;;;;6.77;98.68;100131.28;5018523;28;20054;-77
2020/12/01 11:00:09;;;;;;;10.10;5.72;;;;;;;6.79;98.83;100148.84;5016933;28;20045;-76
2020/12/01 11:02:37;;;;;;;8.05;5.03;;;;;;;6.80;98.81;100136.44;5018316;28;20128;-77
2020/12/01 11:05:11;;;;;;;6.75;4.00;;;;;;;6.83;98.47;100140.75;5016765;28;20054;-77
2020/12/01 11:07:37;;;;;;;9.02;4.30;;;;;;;6.84;98.49;100140.69;5017059;28;20073;-77
2020/12/01 11:10:04;;;;;;;12.48;5.00;;;;;;;6.79;98.75;100151.50;5016189;28;20049;-76
2020/12/01 11:12:30;;;;;;;10.32;3.92;;;;;;;6.89;98.60;100148.41;5017352;28;20337;-77
2020/12/01 11:14:57;;;;;;;16.05;4.30;;;;;;;6.79;98.26;100148.84;5016835;28;20064;-76
2020/12/01 11:17:23;;;;;;;14.07;4.20;;;;;;;6.78;98.01;100154.22;5016275;28;20050;-78
2020/12/01 11:19:49;;;;;;;14.90;4.03;;;;;;;6.78;98.44;100151.56;5012724;28;20054;-76
2020/12/01 11:22:15;;;;;;;19.13;4.05;;;;;;;6.75;98.37;100154.38;5005570;28;20050;-77
2020/12/01 11:24:42;;;;;;;18.02;4.05;;;;;;;6.72;98.19;100152.72;5014927;28;20050;-75
2020/12/01 11:27:09;;;;;;;23.13;3.22;;;;;;;6.78;97.92;100171.00;5017023;28;20133;-77
2020/12/01 11:29:35;;;;;;;22.33;5.07;;;;;;;6.66;97.72;100159.13;5011234;28;20425;-76
2020/12/01 11:32:03;;;;;;;23.17;4.20;;;;;;;6.69;98.25;100173.22;5026887;28;20057;-76
2020/12/01 11:34:30;;;;;;;23.63;3.92;;;;;;;6.64;97.93;100162.78;5026458;28;20053;-76
2020/12/01 11:36:56;;;;;;;22.80;3.83;;;;;;;6.65;98.01;100164.53;5025833;28;20053;-75
2020/12/01 11:39:23;;;;;;;20.98;3.65;;;;;;;6.68;98.26;100180.28;5031562;28;20049;-78
2020/12/01 11:41:49;;;;;;;25.83;3.65;;;;;;;6.63;98.15;100172.56;5026873;28;20490;-79
2020/12/01 11:44:16;;;;;;;22.58;4.05;;;;;;;6.68;98.10;100182.94;5015228;28;20118;-76
2020/12/01 11:46:43;;;;;;;35.03;4.53;;;;;;;6.66;98.30;100187.47;5018455;28;20053;-77
2020/12/01 11:49:10;;;;;;;21.45;5.13;;;;;;;6.74;97.85;100187.09;5017721;28;20054;-79
2020/12/01 11:51:39;;;;;;;28.33;4.13;;;;;;;6.68;98.16;100184.72;5016977;28;20112;-79
2020/12/01 11:54:07;;;;;;;30.15;4.13;;;;;;;6.70;98.25;100186.38;5016687;28;20057;-78
2020/12/01 11:56:33;;;;;;;24.42;3.60;;;;;;;6.68;98.30;100195.34;5015019;28;20502;-78
2020/12/01 11:58:59;;;;;;;33.35;4.38;;;;;;;6.67;98.28;100183.88;5016474;28;20061;-78
2020/12/01 12:01:26;;;;;;;21.52;4.53;;;;;;;6.63;98.41;100191.13;5015582;28;20054;-78
2020/12/01 12:03:52;;;;;;;28.10;4.47;;;;;;;6.55;98.43;100180.00;5015692;28;20050;-78
2020/12/01 12:06:18;;;;;;;27.55;4.57;;;;;;;6.59;98.74;100186.03;5015188;28;20459;-77
2020/12/01 12:08:45;;;;;;;25.83;3.75;;;;;;;6.48;98.53;100165.28;5016411;28;20060;-76
2020/12/01 12:11:12;;;;;;;21.40;3.67;;;;;;;6.57;98.89;100187.84;5014811;28;20084;-77
2020/12/01 12:13:38;;;;;;;22.88;3.75;;;;;;;6.56;98.54;100187.00;5015677;28;20062;-79
2020/12/01 12:16:05;;;;;;;33.05;4.28;;;;;;;6.63;98.52;100193.75;5014893;28;20059;-78
2020/12/01 12:18:31;;;;;;;23.27;3.85;;;;;;;6.66;98.51;100188.31;5015935;28;20056;-78
2020/12/01 12:20:57;;;;;;;28.40;4.45;;;;;;;6.50;98.91;100171.38;5016002;28;20440;-79
2020/12/01 12:23:24;;;;;;;27.88;4.60;;;;;;;6.56;98.98;100176.41;5014256;28;20052;-78
2020/12/01 12:25:51;;;;;;;22.23;4.28;;;;;;;6.60;98.79;100188.56;5014399;28;20058;-78
2020/12/01 12:28:17;;;;;;;40.90;4.40;;;;;;;6.59;98.69;100186.88;5013805;28;20053;-78
2020/12/01 12:30:46;;;;;;;30.73;4.22;;;;;;;6.65;98.96;100189.25;5014895;28;20104;-78
2020/12/01 12:33:12;;;;;;;29.80;4.20;;;;;;;6.71;98.49;100181.94;5014974;28;20351;-78